Aberdeen, Washington
Current Conditions -  °F | °C
As of 7:53 PM on Tuesday 27 Jan 2015 (Local Time) from KHQM Reporting Station
Overcast Overcast  
Wind Chill: 47°   Ceiling: 2400
Heat Index: 49°   Visibility: 8mi
Dew Point: 42°   Wind: 5mph
Humidity: 77%   Direction: 290°WNW
Pressure: 30.22"   Gusts: NA
Location:  46.98°N, 123.81°W
Report Text: KHQM 280353Z AUTO 29004KT 8SM OVC024 09/06 A3022 RMK AO2 SLP235 T00940056 $
Loading
Personal Weather Stations






























Interactive Weather Map New forecast layout! Learn more

10-Day Weather Forecast

Advertisements
Track Severe Weather on mobile